Delta Virtual Airport Information Service

Yellowknife Airport

ICAO: CYZF Country: Canada
Latitude: 62.4628 Longitude: -114.44
Latest Arrival : DAL7556201 (PAFA-CYZF) Latest Departure : DAL7556201 (CYZF-CYEG)


WX CaptureLIVE
Data provided by noaa.gov | Fetched at 07:29:35

METAR : CYZF 061300Z 34003KT 6SM -SN BR BKN140 M15/M17 A2940 RMK AC7 SLP975

TAF : CYZF 061143Z 0612/0712 VRB03KT P6SM FEW060 BKN120 OVC240 TEMPO 0612/0615 1SM BR PROB30 0612/0615 1/2SM FZFG BKN005 FM061500 32008KT P6SM FEW020 BKN080 TEMPO 0615/0621 6SM -SN SCT020 BKN040 FM062100 32012KT P6SM FEW020 BKN120 TEMPO 0703/0712 BKN020 BECMG 0703/0705 30007KT RMK NXT FCST BY 061800Z


Runway Data for CYZF
Data provided by openaviationdata.com

Runway ID Mag Var Hdg Length Elevation Surface ILS Freq ILS Id ILS Slope
9 22 93° 4993 ft 675 ft Asphalt -- -- --
15 22 154° 7408 ft 675 ft Asphalt -- -- --
27 22 273° 4993 ft 675 ft Asphalt -- -- --
33 22 334° 7408 ft 675 ft Asphalt 109.5 IZF 3

Yellowknife Airport, Canada
Use only for reference purposes



Not for navigational purposes.